Time;durP1;ratioP1;P1;durP2;ratioP2;P2;SDS_P1;SDS_P2;PMS_P1;PMS_P2;Temp;Humidity;BMP_temperature;BMP_pressure;BME280_temperature;BME280_humidity;BME280_pressure;Samples;Min_cycle;Max_cycle;Signal;HPM_P1;HPM_P2
2021/08/18 00:00:20;;;;;;;1.50;1.00;;;15.80;98.20;;;;;;5004481;28;20460;-84
2021/08/18 00:02:47;;;;;;;1.50;1.00;;;15.80;98.20;;;;;;5003035;28;20509;-80
2021/08/18 00:05:15;;;;;;;1.50;1.00;;;15.80;98.20;;;;;;5008829;28;20473;-84
2021/08/18 00:07:44;;;;;;;1.53;0.90;;;15.80;98.20;;;;;;4998460;28;20479;-82
2021/08/18 00:10:12;;;;;;;1.50;1.00;;;15.80;98.20;;;;;;5000455;28;20461;-82
2021/08/18 00:12:39;;;;;;;1.50;1.00;;;15.80;98.20;;;;;;4995976;28;20502;-83
2021/08/18 00:15:08;;;;;;;1.50;1.00;;;15.80;98.20;;;;;;5007457;28;20465;-85
2021/08/18 00:17:35;;;;;;;1.50;1.00;;;15.80;98.20;;;;;;4983760;28;20501;-85
2021/08/18 00:20:02;;;;;;;1.57;1.00;;;15.80;98.20;;;;;;5003128;28;20459;-84
2021/08/18 00:22:28;;;;;;;1.50;0.90;;;15.80;98.20;;;;;;5007174;28;20484;-81
2021/08/18 00:24:56;;;;;;;1.50;1.00;;;15.80;98.20;;;;;;5006291;28;20469;-82
2021/08/18 00:27:23;;;;;;;1.53;1.00;;;15.80;98.20;;;;;;4995934;28;20484;-83
2021/08/18 00:29:50;;;;;;;1.50;1.00;;;15.80;98.20;;;;;;5005156;28;20479;-83
2021/08/18 00:32:17;;;;;;;1.50;1.00;;;15.80;98.20;;;;;;5009461;28;20479;-81
2021/08/18 00:34:43;;;;;;;1.53;1.00;;;15.80;98.20;;;;;;5010218;28;20468;-83
2021/08/18 00:37:10;;;;;;;1.50;1.00;;;15.80;98.20;;;;;;5004698;28;20873;-80
2021/08/18 00:39:37;;;;;;;1.50;1.00;;;15.80;98.20;;;;;;5016686;28;20460;-82
2021/08/18 00:42:06;;;;;;;1.57;0.90;;;15.80;98.20;;;;;;5007660;28;20492;-82
2021/08/18 00:44:34;;;;;;;1.53;0.97;;;15.90;98.20;;;;;;5009687;28;20524;-84
2021/08/18 00:47:00;;;;;;;1.50;1.00;;;15.90;98.20;;;;;;5002044;28;20483;-85
2021/08/18 00:49:28;;;;;;;1.50;1.00;;;15.90;98.20;;;;;;5016164;28;20471;-83
2021/08/18 00:51:56;;;;;;;1.50;0.97;;;15.90;98.20;;;;;;5005520;28;20547;-81
2021/08/18 00:54:23;;;;;;;1.53;1.07;;;15.90;98.20;;;;;;5009326;28;20464;-80
2021/08/18 00:56:52;;;;;;;1.50;0.90;;;15.90;98.20;;;;;;5001015;28;20552;-83
2021/08/18 00:59:20;;;;;;;1.50;1.00;;;15.90;98.20;;;;;;5009412;28;20465;-82
2021/08/18 01:01:47;;;;;;;1.50;1.00;;;15.90;98.20;;;;;;4984558;28;20482;-83
2021/08/18 01:04:15;;;;;;;1.50;1.00;;;15.90;98.20;;;;;;4995013;28;21108;-81
2021/08/18 01:06:43;;;;;;;1.50;0.90;;;15.90;98.20;;;;;;4998630;28;20482;-82
2021/08/18 01:09:11;;;;;;;1.57;1.03;;;15.90;98.20;;;;;;5011838;28;20483;-83
2021/08/18 01:11:39;;;;;;;1.50;1.00;;;15.90;98.20;;;;;;5003261;28;20484;-85
2021/08/18 01:14:06;;;;;;;1.60;1.10;;;15.90;98.20;;;;;;5012837;28;20467;-83
2021/08/18 01:16:35;;;;;;;1.53;1.00;;;15.90;98.20;;;;;;5008377;28;21205;-84
2021/08/18 01:19:07;;;;;;;1.50;1.00;;;15.90;98.20;;;;;;5010876;28;20457;-84
2021/08/18 01:21:35;;;;;;;1.50;1.00;;;15.90;98.20;;;;;;5005022;28;20480;-85
2021/08/18 01:24:03;;;;;;;1.50;1.00;;;15.90;98.20;;;;;;5014867;28;20461;-81
2021/08/18 01:26:31;;;;;;;1.50;1.00;;;15.90;98.20;;;;;;5004197;28;20527;-84
2021/08/18 01:29:00;;;;;;;1.50;0.97;;;15.90;98.20;;;;;;5013142;28;20473;-84
2021/08/18 01:31:27;;;;;;;1.50;1.00;;;15.90;98.20;;;;;;4999760;28;20482;-83
2021/08/18 01:33:54;;;;;;;2.03;1.83;;;15.90;98.20;;;;;;5010740;28;20458;-80
2021/08/18 01:36:20;;;;;;;1.57;1.10;;;15.90;98.20;;;;;;4995242;28;20978;-81
2021/08/18 01:38:47;;;;;;;1.50;1.00;;;15.90;98.20;;;;;;5021932;28;20475;-83
2021/08/18 01:41:14;;;;;;;1.50;1.00;;;15.90;98.20;;;;;;4999523;28;20486;-84
2021/08/18 01:43:41;;;;;;;1.50;1.00;;;15.90;98.20;;;;;;5011301;28;20483;-80
2021/08/18 01:46:10;;;;;;;1.50;1.00;;;15.90;98.20;;;;;;4987671;28;20870;-82
2021/08/18 01:48:38;;;;;;;1.50;1.00;;;15.90;98.20;;;;;;5004036;28;20457;-83
2021/08/18 01:51:06;;;;;;;1.50;1.00;;;15.90;98.20;;;;;;4993404;28;20519;-81
2021/08/18 01:53:34;;;;;;;1.50;1.00;;;15.90;98.20;;;;;;5011439;28;20943;-84
2021/08/18 01:56:03;;;;;;;1.57;1.00;;;15.90;98.20;;;;;;4995647;28;20472;-83
2021/08/18 01:58:32;;;;;;;1.50;1.00;;;16.00;98.20;;;;;;4990157;28;20489;-82
2021/08/18 02:00:59;;;;;;;1.50;1.00;;;15.90;98.20;;;;;;4997046;28;20530;-83
2021/08/18 02:03:27;;;;;;;1.50;1.00;;;16.00;98.20;;;;;;4987255;28;20464;-83
2021/08/18 02:05:54;;;;;;;1.57;1.00;;;16.00;98.20;;;;;;4996690;28;20472;-83
2021/08/18 02:08:21;;;;;;;1.50;1.00;;;16.00;98.20;;;;;;5013372;28;20958;-82
2021/08/18 02:10:48;;;;;;;1.50;0.90;;;16.00;98.20;;;;;;4991147;28;20481;-83
2021/08/18 02:13:17;;;;;;;1.50;0.93;;;16.00;98.20;;;;;;5008643;28;20468;-82
2021/08/18 02:15:44;;;;;;;1.50;1.00;;;16.00;98.20;;;;;;5008507;28;20469;-82
2021/08/18 02:18:14;;;;;;;1.50;1.00;;;16.00;98.20;;;;;;4978985;28;20488;-82
2021/08/18 02:20:45;;;;;;;1.50;1.00;;;16.00;98.20;;;;;;5010039;28;20500;-82
2021/08/18 02:23:12;;;;;;;1.50;0.97;;;16.00;98.20;;;;;;4973373;28;20485;-82
2021/08/18 02:25:39;;;;;;;1.50;0.97;;;16.00;98.20;;;;;;5003609;28;20472;-80
2021/08/18 02:28:07;;;;;;;1.53;1.00;;;16.00;98.20;;;;;;4982556;28;20489;-82
2021/08/18 02:30:35;;;;;;;1.50;0.90;;;16.00;98.20;;;;;;5008015;28;20473;-82
2021/08/18 02:33:02;;;;;;;1.50;1.00;;;16.00;98.20;;;;;;5001550;28;20480;-82
2021/08/18 02:35:28;;;;;;;1.53;1.00;;;16.00;98.20;;;;;;5005791;28;20718;-83
2021/08/18 02:37:58;;;;;;;1.50;1.00;;;16.00;98.20;;;;;;5003906;28;20476;-84
2021/08/18 02:40:26;;;;;;;1.50;0.90;;;16.00;98.20;;;;;;5014770;28;20460;-83
2021/08/18 02:42:56;;;;;;;1.50;0.90;;;16.00;98.20;;;;;;4999431;28;20491;-83
2021/08/18 02:45:25;;;;;;;1.50;0.93;;;16.00;98.20;;;;;;5014140;28;20456;-83
2021/08/18 02:47:52;;;;;;;1.50;0.90;;;16.00;98.20;;;;;;5004970;28;20769;-83
2021/08/18 02:50:21;;;;;;;1.60;1.00;;;16.10;98.20;;;;;;5000372;28;20457;-84
2021/08/18 02:52:48;;;;;;;1.60;1.00;;;16.10;98.20;;;;;;5003969;28;20487;-83
2021/08/18 02:55:16;;;;;;;1.50;1.00;;;16.10;98.20;;;;;;5008554;28;20467;-83
2021/08/18 02:57:43;;;;;;;1.53;1.00;;;16.10;98.20;;;;;;5004957;28;20491;-83
2021/08/18 03:00:10;;;;;;;1.50;1.00;;;16.00;98.20;;;;;;5003123;28;20639;-82
2021/08/18 03:02:37;;;;;;;1.53;1.00;;;16.00;98.20;;;;;;5000430;28;20480;-83
2021/08/18 03:05:05;;;;;;;1.50;0.90;;;16.00;98.20;;;;;;5010033;28;20464;-82
2021/08/18 03:07:31;;;;;;;1.57;1.00;;;16.10;98.20;;;;;;4999515;28;20634;-82
2021/08/18 03:09:58;;;;;;;1.50;0.90;;;16.10;98.20;;;;;;5001456;28;20800;-83
2021/08/18 03:12:26;;;;;;;1.50;0.97;;;16.10;98.20;;;;;;4998729;28;20983;-82
2021/08/18 03:14:53;;;;;;;1.50;0.90;;;16.10;98.20;;;;;;5003178;28;20476;-83
2021/08/18 03:17:20;;;;;;;1.53;1.00;;;16.10;98.20;;;;;;4984799;28;20487;-83
2021/08/18 03:19:47;;;;;;;1.50;1.00;;;16.00;98.20;;;;;;5007003;28;20465;-82
2021/08/18 03:22:14;;;;;;;1.50;1.00;;;16.00;98.20;;;;;;5000479;28;20971;-83
2021/08/18 03:24:40;;;;;;;1.50;1.00;;;16.00;98.20;;;;;;5000451;28;20559;-83
2021/08/18 03:27:08;;;;;;;1.50;1.00;;;16.00;98.20;;;;;;4997622;28;20732;-81
2021/08/18 03:29:36;;;;;;;1.50;1.00;;;16.00;98.20;;;;;;5006775;28;20489;-83
2021/08/18 03:32:03;;;;;;;1.57;1.00;;;16.00;98.20;;;;;;5001783;28;20507;-83
2021/08/18 03:34:29;;;;;;;1.57;1.00;;;16.00;98.20;;;;;;5003668;28;21103;-83
2021/08/18 03:36:56;;;;;;;1.50;1.00;;;16.00;98.20;;;;;;4994945;28;20477;-82
2021/08/18 03:39:24;;;;;;;1.50;1.00;;;16.00;98.20;;;;;;5002247;28;20527;-83
2021/08/18 03:41:50;;;;;;;1.53;1.00;;;16.00;98.20;;;;;;4991969;28;20611;-83
2021/08/18 03:44:17;;;;;;;1.53;1.10;;;16.00;98.20;;;;;;5005176;28;20507;-82
2021/08/18 03:46:45;;;;;;;1.50;1.00;;;16.00;98.20;;;;;;5001039;28;20479;-83
2021/08/18 03:49:12;;;;;;;1.50;0.90;;;16.00;98.20;;;;;;5001802;28;20460;-84
2021/08/18 03:51:39;;;;;;;1.50;1.00;;;16.00;98.20;;;;;;4990204;28;20515;-83
2021/08/18 03:54:06;;;;;;;1.50;0.97;;;16.10;98.20;;;;;;5010181;28;20471;-81
2021/08/18 03:56:32;;;;;;;1.50;1.00;;;16.10;98.20;;;;;;4986638;28;20863;-83
2021/08/18 03:58:59;;;;;;;1.50;1.00;;;16.10;98.20;;;;;;4994595;28;20492;-84
2021/08/18 04:01:29;;;;;;;1.50;1.00;;;16.10;98.20;;;;;;4997200;28;20487;-80
2021/08/18 04:03:57;;;;;;;1.50;1.00;;;16.10;98.20;;;;;;5011671;28;20539;-81
2021/08/18 04:06:23;;;;;;;1.53;1.00;;;16.10;98.20;;;;;;4997024;28;20514;-82
2021/08/18 04:08:50;;;;;;;1.53;1.00;;;16.10;98.20;;;;;;5012577;28;20458;-82
2021/08/18 04:11:17;;;;;;;1.50;1.00;;;16.10;98.20;;;;;;4995434;28;20853;-83
2021/08/18 04:13:44;;;;;;;1.57;1.00;;;16.10;98.20;;;;;;5013603;28;20459;-82
2021/08/18 04:16:10;;;;;;;1.53;1.00;;;16.10;98.20;;;;;;5004368;28;20482;-83
2021/08/18 04:18:37;;;;;;;1.50;1.00;;;16.10;98.20;;;;;;5010631;28;20485;-83
2021/08/18 04:21:17;;;;;;;1.50;1.00;;;16.10;98.20;;;;;;5000974;28;20940;-83
2021/08/18 04:23:49;;;;;;;1.60;1.10;;;16.10;98.20;;;;;;5007593;28;20464;-81
2021/08/18 04:26:16;;;;;;;1.57;1.00;;;16.10;98.20;;;;;;5005950;28;20538;-83
2021/08/18 04:28:43;;;;;;;1.60;1.10;;;16.10;98.20;;;;;;5010470;28;20453;-82
2021/08/18 04:31:10;;;;;;;1.50;0.97;;;16.10;98.20;;;;;;5008407;28;20510;-83
2021/08/18 04:33:36;;;;;;;1.50;1.00;;;16.10;98.20;;;;;;5011258;28;20461;-83
2021/08/18 04:36:03;;;;;;;1.50;1.00;;;16.10;98.20;;;;;;4999135;28;20495;-83
2021/08/18 04:38:32;;;;;;;1.57;1.00;;;16.10;98.20;;;;;;5011385;28;20485;-83
2021/08/18 04:40:59;;;;;;;1.57;1.00;;;16.10;98.20;;;;;;4999449;28;20484;-83
2021/08/18 04:43:26;;;;;;;1.53;1.00;;;16.10;98.20;;;;;;5010774;28;20453;-82
2021/08/18 04:45:53;;;;;;;1.50;1.00;;;16.10;98.20;;;;;;5003200;28;20993;-82
2021/08/18 04:48:20;;;;;;;1.50;1.00;;;16.10;98.20;;;;;;5008447;28;20500;-82
2021/08/18 04:50:47;;;;;;;1.50;1.00;;;16.10;98.20;;;;;;5005536;28;20951;-82
2021/08/18 04:53:13;;;;;;;1.50;0.97;;;16.10;98.20;;;;;;5013352;28;20469;-82
2021/08/18 04:55:42;;;;;;;1.60;1.10;;;16.20;98.20;;;;;;5008430;28;20460;-83
2021/08/18 04:58:10;;;;;;;1.50;0.90;;;16.20;98.20;;;;;;4979072;28;20475;-81
2021/08/18 05:00:37;;;;;;;1.53;1.00;;;16.10;98.20;;;;;;5009994;28;20613;-79
2021/08/18 05:03:04;;;;;;;1.50;1.00;;;16.20;98.20;;;;;;4993605;28;21050;-79
2021/08/18 05:05:31;;;;;;;1.50;1.00;;;16.20;98.20;;;;;;5010666;28;20471;-80
2021/08/18 05:07:59;;;;;;;1.50;1.00;;;16.20;98.20;;;;;;5002389;28;20483;-80
2021/08/18 05:10:26;;;;;;;1.57;1.00;;;16.20;98.20;;;;;;5004286;28;20569;-81
2021/08/18 05:12:54;;;;;;;1.50;0.90;;;16.20;98.20;;;;;;5004360;28;20479;-80
2021/08/18 05:15:22;;;;;;;1.50;0.90;;;16.30;98.20;;;;;;5007074;28;20970;-81
2021/08/18 05:17:49;;;;;;;1.53;1.00;;;16.30;98.20;;;;;;5002955;28;20562;-79
2021/08/18 05:20:16;;;;;;;1.50;1.00;;;16.30;98.20;;;;;;5011434;28;20452;-80
2021/08/18 05:22:43;;;;;;;1.50;0.90;;;16.30;98.20;;;;;;5001805;28;20480;-80
2021/08/18 05:25:11;;;;;;;1.53;0.90;;;16.30;98.20;;;;;;5012192;28;20464;-80
2021/08/18 05:27:38;;;;;;;1.50;1.00;;;16.40;98.20;;;;;;5000984;28;20476;-81
2021/08/18 05:30:09;;;;;;;1.50;1.00;;;16.40;98.20;;;;;;5001098;28;20543;-81
2021/08/18 05:32:36;;;;;;;1.53;0.93;;;16.40;98.20;;;;;;5004792;28;20494;-80
2021/08/18 05:35:06;;;;;;;1.50;1.00;;;16.40;98.20;;;;;;5002092;28;20473;-80
2021/08/18 05:37:37;;;;;;;1.50;1.00;;;16.50;98.20;;;;;;4992526;28;20483;-81
2021/08/18 05:40:11;;;;;;;1.50;1.00;;;16.50;98.20;;;;;;4999524;28;20532;-80
2021/08/18 05:42:43;;;;;;;1.53;0.90;;;16.50;98.20;;;;;;4995320;28;20563;-80
2021/08/18 05:45:15;;;;;;;1.57;0.97;;;16.50;98.20;;;;;;5005152;28;20464;-80
2021/08/18 05:47:42;;;;;;;1.50;1.00;;;16.60;98.20;;;;;;4999450;28;20484;-78
2021/08/18 05:50:10;;;;;;;1.60;1.10;;;16.60;98.20;;;;;;5011429;28;20825;-80
2021/08/18 05:52:37;;;;;;;1.50;1.00;;;16.60;98.20;;;;;;5001225;28;20516;-78
2021/08/18 05:55:11;;;;;;;1.53;0.90;;;16.70;98.20;;;;;;5009855;28;21001;-79
2021/08/18 05:57:38;;;;;;;1.50;1.00;;;16.70;98.20;;;;;;4986898;28;20572;-78
2021/08/18 06:00:11;;;;;;;1.50;1.00;;;16.70;98.20;;;;;;5005668;28;20570;-80
2021/08/18 06:02:41;;;;;;;1.57;1.00;;;16.80;98.20;;;;;;5001150;28;21484;-79
2021/08/18 06:05:14;;;;;;;1.50;1.00;;;16.80;98.20;;;;;;4999519;28;20467;-79
2021/08/18 06:07:42;;;;;;;1.53;0.90;;;16.90;98.20;;;;;;4993023;28;20942;-79
2021/08/18 06:10:11;;;;;;;1.53;1.00;;;16.90;98.20;;;;;;4996020;28;20465;-78
2021/08/18 06:12:38;;;;;;;1.50;1.00;;;17.00;98.20;;;;;;4999085;28;20491;-78
2021/08/18 06:15:07;;;;;;;1.57;0.90;;;17.00;98.20;;;;;;5000791;28;20464;-79
2021/08/18 06:17:34;;;;;;;1.60;1.00;;;17.10;98.20;;;;;;5003764;28;20575;-78
2021/08/18 06:20:04;;;;;;;1.53;0.90;;;17.10;98.20;;;;;;5003312;28;21008;-79
2021/08/18 06:22:32;;;;;;;1.50;1.00;;;17.20;98.20;;;;;;4991803;28;20531;-79
2021/08/18 06:25:02;;;;;;;1.53;1.00;;;17.20;98.20;;;;;;5003517;28;20595;-79
2021/08/18 06:27:30;;;;;;;1.50;1.00;;;17.30;98.20;;;;;;4977513;28;20520;-79
2021/08/18 06:29:57;;;;;;;1.57;1.00;;;17.30;98.20;;;;;;5010892;28;20457;-79
2021/08/18 06:32:24;;;;;;;1.53;0.93;;;17.30;98.20;;;;;;5003181;28;20480;-78
2021/08/18 06:34:53;;;;;;;1.53;1.00;;;17.40;98.20;;;;;;5009588;28;20471;-79
2021/08/18 06:37:21;;;;;;;1.57;1.00;;;17.40;98.20;;;;;;4981383;28;20485;-79
2021/08/18 06:39:48;;;;;;;1.57;1.00;;;17.40;98.20;;;;;;5003716;28;21070;-79
2021/08/18 06:42:17;;;;;;;1.57;1.00;;;17.40;98.20;;;;;;4998346;28;20630;-79
2021/08/18 06:44:44;;;;;;;1.53;1.00;;;17.50;98.20;;;;;;5007237;28;20496;-81
2021/08/18 06:47:12;;;;;;;1.50;1.00;;;17.50;98.20;;;;;;4993643;28;20802;-80
2021/08/18 06:49:39;;;;;;;1.53;1.00;;;17.60;98.20;;;;;;4997992;28;20477;-78
2021/08/18 06:52:07;;;;;;;1.50;1.00;;;17.60;98.20;;;;;;4993558;28;20871;-79
2021/08/18 06:54:36;;;;;;;1.57;1.00;;;17.60;98.20;;;;;;4999387;28;20551;-79
2021/08/18 06:57:03;;;;;;;1.53;0.90;;;17.60;98.20;;;;;;4998977;28;20506;-78
2021/08/18 06:59:30;;;;;;;1.57;1.00;;;17.60;98.20;;;;;;5008989;28;20871;-78
2021/08/18 07:01:57;;;;;;;1.53;1.00;;;17.70;98.20;;;;;;5006045;28;20495;-80
2021/08/18 07:04:24;;;;;;;1.50;0.97;;;17.70;98.20;;;;;;5011848;28;20457;-78
2021/08/18 07:06:51;;;;;;;1.57;1.00;;;17.80;98.20;;;;;;5000299;28;20484;-80
2021/08/18 07:09:17;;;;;;;1.50;0.90;;;17.90;98.20;;;;;;5014497;28;20464;-79
2021/08/18 07:11:45;;;;;;;1.57;1.00;;;17.90;98.20;;;;;;4998986;28;20487;-79
2021/08/18 07:14:13;;;;;;;1.53;1.00;;;18.00;98.20;;;;;;5004161;28;20465;-78
2021/08/18 07:16:40;;;;;;;1.53;1.00;;;18.00;98.20;;;;;;5000070;28;20931;-80
2021/08/18 07:19:07;;;;;;;1.57;1.00;;;18.00;98.20;;;;;;4994944;28;20550;-80
2021/08/18 07:21:34;;;;;;;1.53;0.90;;;18.10;98.20;;;;;;4999577;28;20491;-78
2021/08/18 07:24:02;;;;;;;1.60;1.10;;;18.10;98.20;;;;;;5002963;28;20468;-81
2021/08/18 07:26:29;;;;;;;1.53;0.90;;;18.10;98.20;;;;;;4986933;28;20484;-78
2021/08/18 07:28:59;;;;;;;1.50;1.00;;;18.10;98.20;;;;;;5003529;28;20469;-80
2021/08/18 07:31:27;;;;;;;1.57;1.00;;;18.20;98.20;;;;;;4999699;28;20889;-80
2021/08/18 07:33:54;;;;;;;1.60;1.00;;;18.20;98.20;;;;;;5004080;28;20469;-81
2021/08/18 07:36:21;;;;;;;1.57;1.00;;;18.30;98.20;;;;;;4987720;28;21012;-80
2021/08/18 07:38:48;;;;;;;1.57;0.90;;;18.30;98.20;;;;;;5008076;28;20523;-80
2021/08/18 07:41:15;;;;;;;1.50;1.00;;;18.40;98.20;;;;;;4994322;28;21093;-81
2021/08/18 07:43:42;;;;;;;1.50;0.97;;;18.40;98.20;;;;;;5001705;28;20542;-80
2021/08/18 07:46:11;;;;;;;1.57;1.00;;;18.50;98.20;;;;;;4990606;28;20472;-80
2021/08/18 07:48:38;;;;;;;1.50;1.00;;;18.50;98.20;;;;;;4985395;28;20516;-81
2021/08/18 07:51:04;;;;;;;1.53;0.90;;;18.60;98.20;;;;;;4985157;28;20484;-81
2021/08/18 07:53:31;;;;;;;1.53;1.00;;;18.60;98.20;;;;;;5006579;28;20457;-81
2021/08/18 07:55:58;;;;;;;2.07;1.87;;;18.60;98.20;;;;;;4988780;28;20455;-81
2021/08/18 07:58:25;;;;;;;1.60;1.00;;;18.60;98.20;;;;;;5006883;28;20468;-81
2021/08/18 08:00:51;;;;;;;1.57;1.00;;;18.60;98.20;;;;;;5002787;28;20484;-81
2021/08/18 08:03:20;;;;;;;1.50;0.90;;;18.60;98.20;;;;;;5010552;28;21015;-82
2021/08/18 08:05:47;;;;;;;1.60;1.00;;;18.60;98.20;;;;;;5005777;28;20515;-81
2021/08/18 08:08:14;;;;;;;1.53;0.90;;;18.50;98.20;;;;;;5007626;28;20464;-82
2021/08/18 08:10:41;;;;;;;1.50;1.00;;;18.50;98.20;;;;;;4998006;28;21005;-82
2021/08/18 08:13:09;;;;;;;1.53;0.90;;;18.40;98.20;;;;;;4996059;28;20504;-79
2021/08/18 08:15:36;;;;;;;1.50;0.90;;;18.30;98.20;;;;;;5009355;28;20460;-80
2021/08/18 08:18:03;;;;;;;1.53;1.00;;;18.30;98.20;;;;;;4996046;28;20527;-82
2021/08/18 08:20:34;;;;;;;1.57;1.00;;;18.30;98.20;;;;;;4990537;28;21387;-82
2021/08/18 08:23:02;;;;;;;1.57;1.00;;;18.30;98.20;;;;;;4997061;28;20494;-83
2021/08/18 08:25:29;;;;;;;1.60;1.00;;;18.30;98.20;;;;;;5006957;28;20491;-84
2021/08/18 08:27:56;;;;;;;1.50;0.90;;;18.30;98.20;;;;;;5005467;28;20488;-80
2021/08/18 08:30:22;;;;;;;1.50;0.90;;;18.30;98.20;;;;;;4994812;28;20976;-83
2021/08/18 08:32:50;;;;;;;1.60;1.00;;;18.30;98.20;;;;;;4998493;28;21018;-82
2021/08/18 08:35:17;;;;;;;1.53;0.90;;;18.40;98.20;;;;;;4993062;28;20472;-82
2021/08/18 08:37:47;;;;;;;1.57;0.90;;;18.40;98.20;;;;;;4995141;28;20638;-82
2021/08/18 08:40:14;;;;;;;1.53;0.90;;;18.40;98.20;;;;;;4998201;28;20492;-83
2021/08/18 08:42:42;;;;;;;1.53;0.90;;;18.40;98.20;;;;;;4970208;28;20498;-81
2021/08/18 08:45:11;;;;;;;1.60;1.10;;;18.50;98.20;;;;;;5004542;28;20463;-82
2021/08/18 08:47:42;;;;;;;1.60;1.03;;;18.50;98.20;;;;;;4976818;28;20485;-80
2021/08/18 08:50:11;;;;;;;1.50;1.00;;;18.60;98.20;;;;;;5001012;28;20465;-83
2021/08/18 08:52:39;;;;;;;1.50;1.00;;;18.70;98.20;;;;;;4998068;28;20492;-78
2021/08/18 08:55:08;;;;;;;1.57;0.90;;;18.80;98.20;;;;;;5004042;28;21002;-79
2021/08/18 08:57:46;;;;;;;1.53;0.90;;;19.00;98.20;;;;;;4997214;28;20510;-80
2021/08/18 09:00:14;;;;;;;1.53;0.90;;;19.10;98.20;;;;;;5006647;28;20492;-79
2021/08/18 09:02:42;;;;;;;1.50;0.90;;;19.10;98.20;;;;;;5000528;28;20877;-79
2021/08/18 09:05:09;;;;;;;1.57;0.90;;;19.10;98.20;;;;;;5002428;28;20486;-82
2021/08/18 09:07:36;;;;;;;1.50;0.90;;;19.20;98.20;;;;;;4995791;28;21030;-79
2021/08/18 09:10:06;;;;;;;1.57;0.90;;;19.20;98.20;;;;;;5001947;28;20535;-80
2021/08/18 09:12:36;;;;;;;1.57;0.90;;;19.20;98.20;;;;;;4996667;28;20479;-80
2021/08/18 09:15:16;;;;;;;1.50;0.90;;;19.30;98.20;;;;;;4999105;28;21094;-80
2021/08/18 09:17:45;;;;;;;1.53;0.90;;;19.30;98.20;;;;;;4974750;28;20878;-80
2021/08/18 09:20:14;;;;;;;1.50;0.90;;;19.40;98.20;;;;;;5003726;28;20859;-80
2021/08/18 09:22:46;;;;;;;1.57;0.90;;;19.40;98.20;;;;;;4992750;28;20503;-80
2021/08/18 09:25:20;;;;;;;1.57;1.00;;;19.50;98.20;;;;;;5003573;28;20492;-79
2021/08/18 09:27:50;;;;;;;1.57;1.00;;;19.50;98.20;;;;;;4968384;28;20881;-79
2021/08/18 09:30:23;;;;;;;1.57;0.90;;;19.50;98.20;;;;;;4993992;28;20547;-79
2021/08/18 09:32:51;;;;;;;1.50;0.90;;;19.60;98.20;;;;;;4998452;28;21147;-80
2021/08/18 09:35:19;;;;;;;1.60;1.00;;;19.60;98.20;;;;;;5005536;28;20477;-78
2021/08/18 09:37:54;;;;;;;1.50;0.90;;;19.60;98.20;;;;;;4994935;28;20480;-80
2021/08/18 09:40:23;;;;;;;1.53;0.90;;;19.70;98.20;;;;;;5007797;28;20484;-79
2021/08/18 09:43:07;;;;;;;1.53;0.90;;;19.70;98.20;;;;;;4999294;28;20552;-80
2021/08/18 09:45:34;;;;;;;1.60;1.00;;;19.70;98.20;;;;;;5003830;28;20489;-80
2021/08/18 09:48:06;;;;;;;1.50;0.97;;;19.70;98.20;;;;;;4997086;28;20483;-79
2021/08/18 09:50:50;;;;;;;1.53;1.00;;;19.80;98.20;;;;;;5005495;28;20902;-80
2021/08/18 09:53:19;;;;;;;1.53;0.90;;;19.80;98.20;;;;;;4975524;28;20476;-78
2021/08/18 09:55:55;;;;;;;1.53;0.90;;;19.80;98.20;;;;;;5000599;28;20468;-78
2021/08/18 09:58:31;;;;;;;1.50;0.90;;;19.80;98.20;;;;;;4994439;28;20471;-78
2021/08/18 10:01:00;;;;;;;1.53;0.90;;;19.70;98.20;;;;;;4999883;28;20494;-78
2021/08/18 10:03:28;;;;;;;1.50;0.90;;;19.60;98.20;;;;;;5003643;28;20468;-79
2021/08/18 10:05:55;;;;;;;1.50;0.90;;;19.40;98.20;;;;;;4986312;28;20812;-77
2021/08/18 10:08:24;;;;;;;1.53;0.90;;;19.40;98.20;;;;;;5009131;28;20460;-79
2021/08/18 10:10:53;;;;;;;1.57;0.93;;;19.40;98.20;;;;;;4985541;28;20836;-79
2021/08/18 10:13:22;;;;;;;1.50;0.90;;;19.40;98.20;;;;;;5003764;28;21058;-80
2021/08/18 10:15:54;;;;;;;1.53;0.90;;;19.50;98.20;;;;;;4993358;28;21466;-80
2021/08/18 10:18:30;;;;;;;1.53;0.90;;;19.60;98.20;;;;;;5003116;28;20543;-79
2021/08/18 10:21:01;;;;;;;1.57;0.90;;;19.70;98.20;;;;;;4986760;28;20526;-79
2021/08/18 10:23:42;;;;;;;1.53;0.90;;;19.80;98.20;;;;;;4998874;28;20875;-78
2021/08/18 10:26:09;;;;;;;1.53;0.90;;;19.80;98.20;;;;;;4982429;28;20481;-78
2021/08/18 10:29:04;;;;;;;1.50;0.90;;;20.00;98.20;;;;;;5000122;28;20980;-78
2021/08/18 10:31:56;;;;;;;1.53;0.90;;;20.10;98.20;;;;;;4996239;28;20488;-79
2021/08/18 10:34:39;;;;;;;1.60;0.90;;;20.30;98.20;;;;;;5002948;28;20448;-77
2021/08/18 10:37:11;;;;;;;1.57;0.90;;;20.40;98.20;;;;;;4998480;28;20487;-80
2021/08/18 10:39:41;;;;;;;1.53;0.90;;;20.60;98.20;;;;;;4997124;28;20488;-79
2021/08/18 10:42:10;;;;;;;1.50;0.90;;;20.80;98.20;;;;;;4997367;28;21132;-78
2021/08/18 10:44:40;;;;;;;1.50;0.97;;;20.90;98.20;;;;;;5006467;28;20470;-80
2021/08/18 10:47:25;;;;;;;1.50;0.90;;;21.10;98.20;;;;;;4995615;28;20488;-78
2021/08/18 10:49:53;;;;;;;1.50;0.90;;;21.20;98.20;;;;;;5001344;28;20951;-79
2021/08/18 10:52:54;;;;;;;1.50;0.90;;;21.20;98.20;;;;;;4995679;28;20584;-79
2021/08/18 10:55:32;;;;;;;1.50;0.90;;;21.30;98.20;;;;;;4994334;28;20560;-78
2021/08/18 10:58:01;;;;;;;1.53;0.90;;;21.20;98.20;;;;;;4996491;28;20530;-79
2021/08/18 11:00:37;;;;;;;1.53;0.90;;;21.20;98.20;;;;;;5008569;28;20491;-78
2021/08/18 11:03:07;;;;;;;1.50;0.90;;;21.20;98.20;;;;;;5004706;28;20487;-78
2021/08/18 11:05:51;;;;;;;1.50;0.90;;;21.30;98.20;;;;;;5005834;28;20552;-80
2021/08/18 11:08:20;;;;;;;1.50;0.90;;;21.30;98.20;;;;;;4967565;28;20523;-80
2021/08/18 11:11:20;;;;;;;1.53;0.90;;;21.30;98.20;;;;;;4996735;28;20484;-79
2021/08/18 11:13:50;;;;;;;1.60;1.10;;;21.30;98.20;;;;;;5005375;28;21047;-80
2021/08/18 11:16:19;;;;;;;1.50;0.90;;;21.20;98.20;;;;;;4977428;28;20485;-79
2021/08/18 11:18:49;;;;;;;1.50;0.90;;;21.20;98.20;;;;;;4984720;28;20468;-80
2021/08/18 11:21:18;;;;;;;1.50;0.90;;;21.20;98.20;;;;;;4983203;28;20483;-79
2021/08/18 11:23:50;;;;;;;1.53;0.90;;;21.20;98.20;;;;;;5007144;28;20471;-80
2021/08/18 11:26:21;;;;;;;1.53;0.90;;;21.20;98.20;;;;;;4985168;28;20488;-80
2021/08/18 11:29:00;;;;;;;1.50;1.00;;;21.30;98.20;;;;;;5001544;28;20483;-79
2021/08/18 11:31:33;;;;;;;1.50;0.90;;;21.30;98.20;;;;;;4992995;28;20749;-80
2021/08/18 11:34:01;;;;;;;1.53;0.90;;;21.40;98.20;;;;;;4998378;28;20814;-81
2021/08/18 11:36:34;;;;;;;1.50;0.90;;;21.50;98.20;;;;;;4986414;28;20482;-79
2021/08/18 11:39:02;;;;;;;1.50;0.90;;;21.60;98.20;;;;;;5004045;28;20471;-79
2021/08/18 11:41:37;;;;;;;1.50;0.90;;;21.70;98.20;;;;;;4994935;28;20498;-81
2021/08/18 11:44:04;;;;;;;1.57;1.00;;;21.90;98.20;;;;;;4995223;28;20740;-79
2021/08/18 11:46:31;;;;;;;1.50;0.90;;;22.00;98.20;;;;;;4991468;28;20494;-78
2021/08/18 11:49:08;;;;;;;1.53;0.90;;;22.10;98.20;;;;;;4998824;28;20987;-79
2021/08/18 11:51:36;;;;;;;1.50;0.90;;;22.20;98.00;;;;;;4987044;28;20523;-79
2021/08/18 11:54:03;;;;;;;1.53;0.90;;;22.20;96.10;;;;;;4989428;28;20469;-79
2021/08/18 11:56:31;;;;;;;1.50;0.90;;;22.20;96.80;;;;;;4987348;28;21002;-82
2021/08/18 11:59:00;;;;;;;1.53;0.90;;;22.20;96.80;;;;;;4996403;28;20460;-81
2021/08/18 12:01:27;;;;;;;1.70;1.30;;;22.10;97.40;;;;;;4986502;28;20559;-81
2021/08/18 12:03:54;;;;;;;1.50;0.90;;;22.00;96.90;;;;;;4992831;28;20460;-82
2021/08/18 12:06:37;;;;;;;1.60;0.93;;;22.00;97.30;;;;;;4982786;28;20982;-81
2021/08/18 12:09:18;;;;;;;1.50;0.90;;;22.00;97.90;;;;;;4994391;28;20457;-80
2021/08/18 12:11:45;;;;;;;1.50;0.90;;;22.10;98.10;;;;;;4984750;28;20704;-80
2021/08/18 12:14:14;;;;;;;1.57;0.90;;;22.00;96.60;;;;;;4996959;28;20461;-80
2021/08/18 12:16:41;;;;;;;1.50;0.90;;;22.00;96.80;;;;;;4991197;28;20487;-80
2021/08/18 12:19:23;;;;;;;1.50;0.97;;;21.90;97.20;;;;;;4999031;28;20453;-80
2021/08/18 12:22:13;;;;;;;1.60;1.10;;;21.90;97.40;;;;;;4993821;28;20503;-79
2021/08/18 12:24:42;;;;;;;1.50;0.90;;;21.90;97.60;;;;;;4996595;28;20492;-81
2021/08/18 12:27:14;;;;;;;1.50;0.90;;;21.90;97.70;;;;;;4993442;28;20535;-80
2021/08/18 12:29:41;;;;;;;1.50;0.90;;;21.90;97.70;;;;;;5000140;28;20645;-82
2021/08/18 12:32:10;;;;;;;1.50;0.90;;;21.80;97.30;;;;;;4986706;28;20486;-79
2021/08/18 12:34:45;;;;;;;1.50;0.90;;;21.80;97.70;;;;;;5001902;28;20472;-83
2021/08/18 12:37:17;;;;;;;1.57;1.00;;;21.70;97.70;;;;;;4989855;28;20487;-82
2021/08/18 12:39:45;;;;;;;1.50;0.90;;;21.60;98.00;;;;;;5002050;28;20551;-81
2021/08/18 12:42:23;;;;;;;1.50;0.90;;;21.50;98.00;;;;;;4997087;28;20488;-81
2021/08/18 12:45:09;;;;;;;1.50;0.90;;;21.50;98.20;;;;;;4995366;28;20475;-79
2021/08/18 12:47:37;;;;;;;1.50;0.90;;;21.50;98.20;;;;;;4990294;28;20535;-77
2021/08/18 12:50:17;;;;;;;1.50;0.90;;;21.50;98.20;;;;;;5000669;28;20559;-78
2021/08/18 12:52:45;;;;;;;2.33;2.13;;;21.40;98.20;;;;;;5000427;28;20962;-77
2021/08/18 12:55:13;;;;;;;1.53;0.90;;;21.50;98.20;;;;;;4995200;28;20473;-78
2021/08/18 12:57:42;;;;;;;1.50;0.90;;;21.50;98.20;;;;;;4994153;28;20506;-74